sensor_id;sensor_type;location;lat;lon;timestamp;temperature;humidity
55812;DHT22;41742;52.048;6.092;2022-12-19T00:00:28;0.30;99.90
55812;DHT22;41742;52.048;6.092;2022-12-19T00:02:54;0.30;99.90
55812;DHT22;41742;52.048;6.092;2022-12-19T00:05:19;0.30;99.90
55812;DHT22;41742;52.048;6.092;2022-12-19T00:07:47;0.30;99.90
55812;DHT22;41742;52.048;6.092;2022-12-19T00:10:13;0.40;99.90
55812;DHT22;41742;52.048;6.092;2022-12-19T00:12:39;0.40;99.90
55812;DHT22;41742;52.048;6.092;2022-12-19T00:15:05;0.40;99.90
55812;DHT22;41742;52.048;6.092;2022-12-19T00:17:30;0.40;99.90
55812;DHT22;41742;52.048;6.092;2022-12-19T00:19:57;0.40;99.90
55812;DHT22;41742;52.048;6.092;2022-12-19T00:22:22;0.40;99.90
55812;DHT22;41742;52.048;6.092;2022-12-19T00:24:48;0.40;99.90
55812;DHT22;41742;52.048;6.092;2022-12-19T00:27:14;0.40;99.90
55812;DHT22;41742;52.048;6.092;2022-12-19T00:29:39;0.50;99.90
55812;DHT22;41742;52.048;6.092;2022-12-19T00:32:05;0.50;99.90
55812;DHT22;41742;52.048;6.092;2022-12-19T00:34:31;0.50;99.90
55812;DHT22;41742;52.048;6.092;2022-12-19T00:36:56;0.50;99.90
55812;DHT22;41742;52.048;6.092;2022-12-19T00:39:22;0.50;99.90
55812;DHT22;41742;52.048;6.092;2022-12-19T00:41:47;0.50;99.90
55812;DHT22;41742;52.048;6.092;2022-12-19T00:44:16;0.50;99.90
55812;DHT22;41742;52.048;6.092;2022-12-19T00:46:42;0.50;99.90
55812;DHT22;41742;52.048;6.092;2022-12-19T00:49:08;0.50;99.90
55812;DHT22;41742;52.048;6.092;2022-12-19T00:51:35;0.60;99.90
55812;DHT22;41742;52.048;6.092;2022-12-19T00:54:01;0.60;99.90
55812;DHT22;41742;52.048;6.092;2022-12-19T00:56:31;0.60;99.90
55812;DHT22;41742;52.048;6.092;2022-12-19T00:58:58;0.60;99.90
55812;DHT22;41742;52.048;6.092;2022-12-19T01:01:26;0.60;99.90
55812;DHT22;41742;52.048;6.092;2022-12-19T01:03:52;0.60;99.90
55812;DHT22;41742;52.048;6.092;2022-12-19T01:06:18;0.60;99.90
55812;DHT22;41742;52.048;6.092;2022-12-19T01:08:47;0.60;99.90
55812;DHT22;41742;52.048;6.092;2022-12-19T01:11:12;0.60;99.90
55812;DHT22;41742;52.048;6.092;2022-12-19T01:13:39;0.60;99.90
55812;DHT22;41742;52.048;6.092;2022-12-19T01:16:10;0.60;99.90
55812;DHT22;41742;52.048;6.092;2022-12-19T01:18:36;0.60;99.90
55812;DHT22;41742;52.048;6.092;2022-12-19T01:21:05;0.60;99.90
55812;DHT22;41742;52.048;6.092;2022-12-19T01:23:33;0.70;99.90
55812;DHT22;41742;52.048;6.092;2022-12-19T01:25:58;0.70;99.90
55812;DHT22;41742;52.048;6.092;2022-12-19T01:28:24;0.70;99.90
55812;DHT22;41742;52.048;6.092;2022-12-19T01:30:52;0.70;99.90
55812;DHT22;41742;52.048;6.092;2022-12-19T01:33:22;0.70;99.90
55812;DHT22;41742;52.048;6.092;2022-12-19T01:35:47;0.70;99.90
55812;DHT22;41742;52.048;6.092;2022-12-19T01:38:15;0.70;99.90
55812;DHT22;41742;52.048;6.092;2022-12-19T01:40:52;0.70;99.90
55812;DHT22;41742;52.048;6.092;2022-12-19T01:43:19;0.70;99.90
55812;DHT22;41742;52.048;6.092;2022-12-19T01:45:59;0.70;99.90
55812;DHT22;41742;52.048;6.092;2022-12-19T01:51:00;0.80;99.90
55812;DHT22;41742;52.048;6.092;2022-12-19T01:53:35;0.80;99.90
55812;DHT22;41742;52.048;6.092;2022-12-19T01:56:04;0.80;99.90
55812;DHT22;41742;52.048;6.092;2022-12-19T01:58:31;0.80;99.90
55812;DHT22;41742;52.048;6.092;2022-12-19T02:00:57;0.80;99.90
55812;DHT22;41742;52.048;6.092;2022-12-19T02:03:27;0.90;99.90
55812;DHT22;41742;52.048;6.092;2022-12-19T02:05:54;0.90;99.90
55812;DHT22;41742;52.048;6.092;2022-12-19T02:08:20;0.90;99.90
55812;DHT22;41742;52.048;6.092;2022-12-19T02:10:47;0.90;99.90
55812;DHT22;41742;52.048;6.092;2022-12-19T02:13:14;0.90;99.90
55812;DHT22;41742;52.048;6.092;2022-12-19T02:32:03;0.90;99.90
55812;DHT22;41742;52.048;6.092;2022-12-19T02:37:08;1.00;99.90
55812;DHT22;41742;52.048;6.092;2022-12-19T02:39:43;1.00;99.90
55812;DHT22;41742;52.048;6.092;2022-12-19T02:42:15;1.00;99.90
55812;DHT22;41742;52.048;6.092;2022-12-19T02:44:46;1.00;99.90
55812;DHT22;41742;52.048;6.092;2022-12-19T02:47:14;1.00;99.90
55812;DHT22;41742;52.048;6.092;2022-12-19T02:49:41;1.00;99.90
55812;DHT22;41742;52.048;6.092;2022-12-19T02:52:55;1.10;99.90
55812;DHT22;41742;52.048;6.092;2022-12-19T02:55:02;1.10;99.90
55812;DHT22;41742;52.048;6.092;2022-12-19T02:58:01;1.10;99.90
55812;DHT22;41742;52.048;6.092;2022-12-19T03:00:31;1.20;99.90
55812;DHT22;41742;52.048;6.092;2022-12-19T03:05:38;1.20;99.90
55812;DHT22;41742;52.048;6.092;2022-12-19T03:10:57;1.10;99.90
55812;DHT22;41742;52.048;6.092;2022-12-19T03:13:31;1.20;99.90
55812;DHT22;41742;52.048;6.092;2022-12-19T03:16:00;1.20;99.90
55812;DHT22;41742;52.048;6.092;2022-12-19T03:18:26;1.20;99.90
55812;DHT22;41742;52.048;6.092;2022-12-19T03:23:37;1.20;99.90
55812;DHT22;41742;52.048;6.092;2022-12-19T03:26:08;1.20;99.90
55812;DHT22;41742;52.048;6.092;2022-12-19T03:28:39;1.20;99.90
55812;DHT22;41742;52.048;6.092;2022-12-19T03:31:07;1.20;99.90
55812;DHT22;41742;52.048;6.092;2022-12-19T03:33:36;1.20;99.90
55812;DHT22;41742;52.048;6.092;2022-12-19T03:36:06;1.30;99.90
55812;DHT22;41742;52.048;6.092;2022-12-19T03:38:34;1.30;99.90
55812;DHT22;41742;52.048;6.092;2022-12-19T03:41:02;1.30;99.90
55812;DHT22;41742;52.048;6.092;2022-12-19T03:43:29;1.30;99.90
55812;DHT22;41742;52.048;6.092;2022-12-19T03:46:15;1.30;99.90
55812;DHT22;41742;52.048;6.092;2022-12-19T03:48:51;1.40;99.90
55812;DHT22;41742;52.048;6.092;2022-12-19T03:51:36;1.40;99.90
55812;DHT22;41742;52.048;6.092;2022-12-19T03:54:13;1.40;99.90
55812;DHT22;41742;52.048;6.092;2022-12-19T03:57:06;1.50;99.90
55812;DHT22;41742;52.048;6.092;2022-12-19T03:59:39;1.50;99.90
55812;DHT22;41742;52.048;6.092;2022-12-19T04:02:06;1.50;99.90
55812;DHT22;41742;52.048;6.092;2022-12-19T04:04:39;1.50;99.90
55812;DHT22;41742;52.048;6.092;2022-12-19T04:07:06;1.50;99.90
55812;DHT22;41742;52.048;6.092;2022-12-19T04:09:34;1.50;99.90
55812;DHT22;41742;52.048;6.092;2022-12-19T04:12:05;1.60;99.90
55812;DHT22;41742;52.048;6.092;2022-12-19T04:14:34;1.60;99.90
55812;DHT22;41742;52.048;6.092;2022-12-19T04:17:30;1.60;99.90
55812;DHT22;41742;52.048;6.092;2022-12-19T04:20:03;1.60;99.90
55812;DHT22;41742;52.048;6.092;2022-12-19T04:25:31;1.60;99.90
55812;DHT22;41742;52.048;6.092;2022-12-19T04:28:02;1.60;99.90
55812;DHT22;41742;52.048;6.092;2022-12-19T04:30:28;1.60;99.90
55812;DHT22;41742;52.048;6.092;2022-12-19T04:32:54;1.60;99.90
55812;DHT22;41742;52.048;6.092;2022-12-19T04:35:20;1.60;99.90
55812;DHT22;41742;52.048;6.092;2022-12-19T04:37:46;1.70;99.90
55812;DHT22;41742;52.048;6.092;2022-12-19T04:40:12;1.70;99.90
55812;DHT22;41742;52.048;6.092;2022-12-19T04:42:38;1.80;99.90
55812;DHT22;41742;52.048;6.092;2022-12-19T04:45:04;1.90;99.90
55812;DHT22;41742;52.048;6.092;2022-12-19T04:47:30;1.90;99.90
55812;DHT22;41742;52.048;6.092;2022-12-19T04:49:56;1.90;99.90
55812;DHT22;41742;52.048;6.092;2022-12-19T04:52:21;1.90;99.90
55812;DHT22;41742;52.048;6.092;2022-12-19T04:54:47;1.90;99.90
55812;DHT22;41742;52.048;6.092;2022-12-19T04:57:13;1.80;99.90
55812;DHT22;41742;52.048;6.092;2022-12-19T04:59:39;1.80;99.90
55812;DHT22;41742;52.048;6.092;2022-12-19T05:02:05;1.90;99.90
55812;DHT22;41742;52.048;6.092;2022-12-19T05:04:31;1.90;99.90
55812;DHT22;41742;52.048;6.092;2022-12-19T05:06:56;1.90;99.90
55812;DHT22;41742;52.048;6.092;2022-12-19T05:09:22;1.90;99.90
55812;DHT22;41742;52.048;6.092;2022-12-19T05:11:48;1.90;99.90
55812;DHT22;41742;52.048;6.092;2022-12-19T05:14:13;2.00;99.90
55812;DHT22;41742;52.048;6.092;2022-12-19T05:16:40;2.00;99.90
55812;DHT22;41742;52.048;6.092;2022-12-19T05:19:06;2.00;99.90
55812;DHT22;41742;52.048;6.092;2022-12-19T05:21:31;2.00;99.90
55812;DHT22;41742;52.048;6.092;2022-12-19T05:23:57;2.10;99.90
55812;DHT22;41742;52.048;6.092;2022-12-19T05:26:23;2.10;99.90
55812;DHT22;41742;52.048;6.092;2022-12-19T05:28:48;2.20;99.90
55812;DHT22;41742;52.048;6.092;2022-12-19T05:31:17;2.20;99.90
55812;DHT22;41742;52.048;6.092;2022-12-19T05:33:44;2.20;99.90
55812;DHT22;41742;52.048;6.092;2022-12-19T05:36:13;2.20;99.90
55812;DHT22;41742;52.048;6.092;2022-12-19T05:38:39;2.20;99.90
55812;DHT22;41742;52.048;6.092;2022-12-19T05:41:16;2.20;99.90
55812;DHT22;41742;52.048;6.092;2022-12-19T05:43:43;2.30;99.90
55812;DHT22;41742;52.048;6.092;2022-12-19T05:46:10;2.30;99.90
55812;DHT22;41742;52.048;6.092;2022-12-19T05:48:35;2.40;99.90
55812;DHT22;41742;52.048;6.092;2022-12-19T05:51:01;2.40;99.90
55812;DHT22;41742;52.048;6.092;2022-12-19T05:53:27;2.50;99.90
55812;DHT22;41742;52.048;6.092;2022-12-19T05:56:07;2.50;99.90
55812;DHT22;41742;52.048;6.092;2022-12-19T05:58:33;2.50;99.90
55812;DHT22;41742;52.048;6.092;2022-12-19T06:01:14;2.60;99.90
55812;DHT22;41742;52.048;6.092;2022-12-19T06:03:40;2.60;99.90
55812;DHT22;41742;52.048;6.092;2022-12-19T06:06:08;2.70;99.90
55812;DHT22;41742;52.048;6.092;2022-12-19T06:08:35;2.70;99.90
55812;DHT22;41742;52.048;6.092;2022-12-19T06:11:02;2.80;99.90
55812;DHT22;41742;52.048;6.092;2022-12-19T06:13:29;2.80;99.90
55812;DHT22;41742;52.048;6.092;2022-12-19T06:15:58;2.70;99.90
55812;DHT22;41742;52.048;6.092;2022-12-19T06:18:24;2.80;99.90
55812;DHT22;41742;52.048;6.092;2022-12-19T06:20:57;2.90;99.90
55812;DHT22;41742;52.048;6.092;2022-12-19T06:23:23;3.00;99.90
55812;DHT22;41742;52.048;6.092;2022-12-19T06:25:49;3.00;99.90
55812;DHT22;41742;52.048;6.092;2022-12-19T06:28:15;3.10;99.90
55812;DHT22;41742;52.048;6.092;2022-12-19T06:30:40;3.20;99.90
55812;DHT22;41742;52.048;6.092;2022-12-19T06:33:06;3.20;99.90
55812;DHT22;41742;52.048;6.092;2022-12-19T06:35:31;3.30;99.90
55812;DHT22;41742;52.048;6.092;2022-12-19T06:37:57;3.30;99.90
55812;DHT22;41742;52.048;6.092;2022-12-19T06:40:22;3.40;99.90
55812;DHT22;41742;52.048;6.092;2022-12-19T06:43:07;3.40;99.90
55812;DHT22;41742;52.048;6.092;2022-12-19T06:45:33;3.60;99.90
55812;DHT22;41742;52.048;6.092;2022-12-19T06:47:58;3.50;99.90
55812;DHT22;41742;52.048;6.092;2022-12-19T06:50:24;3.50;99.90
55812;DHT22;41742;52.048;6.092;2022-12-19T06:52:50;3.70;99.90
55812;DHT22;41742;52.048;6.092;2022-12-19T06:55:15;3.50;99.90
55812;DHT22;41742;52.048;6.092;2022-12-19T06:57:41;3.60;99.90
55812;DHT22;41742;52.048;6.092;2022-12-19T07:00:12;3.70;99.90
55812;DHT22;41742;52.048;6.092;2022-12-19T07:02:38;3.80;99.90
55812;DHT22;41742;52.048;6.092;2022-12-19T07:05:07;3.80;99.90
55812;DHT22;41742;52.048;6.092;2022-12-19T07:07:33;3.90;99.90
55812;DHT22;41742;52.048;6.092;2022-12-19T07:09:59;3.90;99.90
55812;DHT22;41742;52.048;6.092;2022-12-19T07:12:25;3.90;99.90
55812;DHT22;41742;52.048;6.092;2022-12-19T07:14:51;3.90;99.90
55812;DHT22;41742;52.048;6.092;2022-12-19T07:17:17;4.00;99.90
55812;DHT22;41742;52.048;6.092;2022-12-19T07:19:43;4.00;99.90
55812;DHT22;41742;52.048;6.092;2022-12-19T07:22:09;4.00;99.90
55812;DHT22;41742;52.048;6.092;2022-12-19T07:24:35;4.10;99.90
55812;DHT22;41742;52.048;6.092;2022-12-19T07:27:01;4.20;99.90
55812;DHT22;41742;52.048;6.092;2022-12-19T07:29:27;4.20;99.90
55812;DHT22;41742;52.048;6.092;2022-12-19T07:31:53;4.10;99.90
55812;DHT22;41742;52.048;6.092;2022-12-19T07:34:19;4.20;99.90
55812;DHT22;41742;52.048;6.092;2022-12-19T07:36:44;4.20;99.90
55812;DHT22;41742;52.048;6.092;2022-12-19T07:39:10;4.20;99.90
55812;DHT22;41742;52.048;6.092;2022-12-19T07:41:36;4.30;99.90
55812;DHT22;41742;52.048;6.092;2022-12-19T07:44:03;4.40;99.90
55812;DHT22;41742;52.048;6.092;2022-12-19T07:46:29;4.40;99.90
55812;DHT22;41742;52.048;6.092;2022-12-19T07:48:54;4.30;99.90
55812;DHT22;41742;52.048;6.092;2022-12-19T07:51:20;4.50;99.90
55812;DHT22;41742;52.048;6.092;2022-12-19T07:53:45;4.50;99.90
55812;DHT22;41742;52.048;6.092;2022-12-19T07:56:11;4.50;99.90
55812;DHT22;41742;52.048;6.092;2022-12-19T07:58:36;4.40;99.90
55812;DHT22;41742;52.048;6.092;2022-12-19T08:01:02;4.50;99.90
55812;DHT22;41742;52.048;6.092;2022-12-19T08:03:28;4.50;99.90
55812;DHT22;41742;52.048;6.092;2022-12-19T08:05:59;4.40;99.90
55812;DHT22;41742;52.048;6.092;2022-12-19T08:08:25;4.60;99.90
55812;DHT22;41742;52.048;6.092;2022-12-19T08:10:50;4.70;99.90
55812;DHT22;41742;52.048;6.092;2022-12-19T08:13:16;4.70;99.90
55812;DHT22;41742;52.048;6.092;2022-12-19T08:15:42;4.70;99.90
55812;DHT22;41742;52.048;6.092;2022-12-19T08:18:07;4.70;99.90
55812;DHT22;41742;52.048;6.092;2022-12-19T08:20:33;4.60;99.90
55812;DHT22;41742;52.048;6.092;2022-12-19T08:22:58;4.60;99.90
55812;DHT22;41742;52.048;6.092;2022-12-19T08:25:24;4.60;99.90
55812;DHT22;41742;52.048;6.092;2022-12-19T08:27:50;4.60;99.90
55812;DHT22;41742;52.048;6.092;2022-12-19T08:30:16;4.70;99.90
55812;DHT22;41742;52.048;6.092;2022-12-19T08:32:41;4.60;99.90
55812;DHT22;41742;52.048;6.092;2022-12-19T08:35:07;4.70;99.90
55812;DHT22;41742;52.048;6.092;2022-12-19T08:37:33;4.70;99.90
55812;DHT22;41742;52.048;6.092;2022-12-19T08:39:58;4.80;99.90
55812;DHT22;41742;52.048;6.092;2022-12-19T08:42:24;4.90;99.90
55812;DHT22;41742;52.048;6.092;2022-12-19T08:44:50;5.10;99.90
55812;DHT22;41742;52.048;6.092;2022-12-19T08:47:15;5.10;99.90
55812;DHT22;41742;52.048;6.092;2022-12-19T08:49:41;5.00;99.90
55812;DHT22;41742;52.048;6.092;2022-12-19T08:52:07;5.10;99.90
55812;DHT22;41742;52.048;6.092;2022-12-19T08:54:32;5.10;99.90
55812;DHT22;41742;52.048;6.092;2022-12-19T08:56:58;5.10;99.90
55812;DHT22;41742;52.048;6.092;2022-12-19T08:59:24;5.20;99.90
55812;DHT22;41742;52.048;6.092;2022-12-19T09:01:49;5.30;99.90
55812;DHT22;41742;52.048;6.092;2022-12-19T09:04:15;5.30;99.90
55812;DHT22;41742;52.048;6.092;2022-12-19T09:06:41;5.40;99.90
55812;DHT22;41742;52.048;6.092;2022-12-19T09:09:06;5.40;99.90
55812;DHT22;41742;52.048;6.092;2022-12-19T09:11:32;5.50;99.90
55812;DHT22;41742;52.048;6.092;2022-12-19T09:13:58;5.50;99.90
55812;DHT22;41742;52.048;6.092;2022-12-19T09:16:25;5.50;99.90
55812;DHT22;41742;52.048;6.092;2022-12-19T09:18:54;5.60;99.90
55812;DHT22;41742;52.048;6.092;2022-12-19T09:21:26;5.50;99.90
55812;DHT22;41742;52.048;6.092;2022-12-19T09:23:55;5.50;99.90
55812;DHT22;41742;52.048;6.092;2022-12-19T09:26:22;5.50;99.90
55812;DHT22;41742;52.048;6.092;2022-12-19T09:28:49;5.50;99.90
55812;DHT22;41742;52.048;6.092;2022-12-19T09:31:23;5.60;99.90
55812;DHT22;41742;52.048;6.092;2022-12-19T09:33:51;5.70;99.90
55812;DHT22;41742;52.048;6.092;2022-12-19T09:36:22;5.60;99.90
55812;DHT22;41742;52.048;6.092;2022-12-19T09:38:49;5.60;99.90
55812;DHT22;41742;52.048;6.092;2022-12-19T09:44:34;5.70;99.90
55812;DHT22;41742;52.048;6.092;2022-12-19T09:47:12;5.70;99.90
55812;DHT22;41742;52.048;6.092;2022-12-19T09:49:41;5.60;99.90
55812;DHT22;41742;52.048;6.092;2022-12-19T09:52:12;5.60;99.90
55812;DHT22;41742;52.048;6.092;2022-12-19T09:54:46;5.80;99.90
55812;DHT22;41742;52.048;6.092;2022-12-19T09:57:22;5.70;99.90
55812;DHT22;41742;52.048;6.092;2022-12-19T09:59:54;5.80;99.90
55812;DHT22;41742;52.048;6.092;2022-12-19T10:02:36;5.80;99.90
55812;DHT22;41742;52.048;6.092;2022-12-19T10:05:25;5.80;99.90
55812;DHT22;41742;52.048;6.092;2022-12-19T10:07:52;5.80;99.90
55812;DHT22;41742;52.048;6.092;2022-12-19T10:10:50;6.00;99.90
55812;DHT22;41742;52.048;6.092;2022-12-19T10:19:00;6.00;99.90
55812;DHT22;41742;52.048;6.092;2022-12-19T10:21:47;6.00;99.90
55812;DHT22;41742;52.048;6.092;2022-12-19T10:24:40;6.10;99.90
55812;DHT22;41742;52.048;6.092;2022-12-19T10:27:49;6.00;99.90
55812;DHT22;41742;52.048;6.092;2022-12-19T10:30:21;6.00;99.90
55812;DHT22;41742;52.048;6.092;2022-12-19T10:33:28;6.10;99.90
55812;DHT22;41742;52.048;6.092;2022-12-19T10:35:58;6.00;99.90
55812;DHT22;41742;52.048;6.092;2022-12-19T10:38:35;6.00;99.90
55812;DHT22;41742;52.048;6.092;2022-12-19T10:43:48;6.10;99.90
55812;DHT22;41742;52.048;6.092;2022-12-19T10:49:26;6.10;99.90
55812;DHT22;41742;52.048;6.092;2022-12-19T10:51:59;6.30;99.90
55812;DHT22;41742;52.048;6.092;2022-12-19T11:05:20;6.30;99.90
55812;DHT22;41742;52.048;6.092;2022-12-19T11:10:49;6.30;99.90
55812;DHT22;41742;52.048;6.092;2022-12-19T11:15:56;6.50;99.90
55812;DHT22;41742;52.048;6.092;2022-12-19T11:18:23;6.40;99.90
55812;DHT22;41742;52.048;6.092;2022-12-19T11:23:26;6.50;99.90
55812;DHT22;41742;52.048;6.092;2022-12-19T11:28:33;6.40;99.90
55812;DHT22;41742;52.048;6.092;2022-12-19T11:31:09;6.40;99.90
55812;DHT22;41742;52.048;6.092;2022-12-19T11:33:35;6.50;99.90
55812;DHT22;41742;52.048;6.092;2022-12-19T11:36:03;6.50;99.90
55812;DHT22;41742;52.048;6.092;2022-12-19T11:38:44;6.50;99.90
55812;DHT22;41742;52.048;6.092;2022-12-19T11:41:16;6.50;99.90
55812;DHT22;41742;52.048;6.092;2022-12-19T11:43:55;6.60;99.90
55812;DHT22;41742;52.048;6.092;2022-12-19T11:46:39;6.50;99.90
55812;DHT22;41742;52.048;6.092;2022-12-19T11:49:27;6.50;99.90
55812;DHT22;41742;52.048;6.092;2022-12-19T11:56:56;6.60;99.90
55812;DHT22;41742;52.048;6.092;2022-12-19T11:59:36;6.60;99.90
55812;DHT22;41742;52.048;6.092;2022-12-19T12:02:23;6.50;99.90
55812;DHT22;41742;52.048;6.092;2022-12-19T12:05:18;6.60;99.90
55812;DHT22;41742;52.048;6.092;2022-12-19T12:10:34;6.70;99.90
55812;DHT22;41742;52.048;6.092;2022-12-19T12:16:14;6.80;99.90
55812;DHT22;41742;52.048;6.092;2022-12-19T12:19:20;6.70;99.90
55812;DHT22;41742;52.048;6.092;2022-12-19T12:22:00;6.80;99.90
55812;DHT22;41742;52.048;6.092;2022-12-19T12:24:44;6.70;99.90
55812;DHT22;41742;52.048;6.092;2022-12-19T12:27:45;6.90;99.90
55812;DHT22;41742;52.048;6.092;2022-12-19T12:30:19;6.80;99.90
55812;DHT22;41742;52.048;6.092;2022-12-19T12:33:20;6.90;99.90
55812;DHT22;41742;52.048;6.092;2022-12-19T12:35:50;7.00;99.90
55812;DHT22;41742;52.048;6.092;2022-12-19T12:38:31;7.00;99.90
55812;DHT22;41742;52.048;6.092;2022-12-19T12:46:19;7.00;99.90
55812;DHT22;41742;52.048;6.092;2022-12-19T12:49:02;7.00;99.90
55812;DHT22;41742;52.048;6.092;2022-12-19T12:51:30;7.00;99.90
55812;DHT22;41742;52.048;6.092;2022-12-19T12:54:06;7.00;99.90
55812;DHT22;41742;52.048;6.092;2022-12-19T12:56:35;7.10;99.90
55812;DHT22;41742;52.048;6.092;2022-12-19T12:59:02;7.10;99.90
55812;DHT22;41742;52.048;6.092;2022-12-19T13:09:27;7.00;99.90
55812;DHT22;41742;52.048;6.092;2022-12-19T13:12:02;7.00;99.90
55812;DHT22;41742;52.048;6.092;2022-12-19T13:14:53;7.00;99.90
55812;DHT22;41742;52.048;6.092;2022-12-19T13:22:38;7.10;99.90
55812;DHT22;41742;52.048;6.092;2022-12-19T13:30:31;7.10;99.90
55812;DHT22;41742;52.048;6.092;2022-12-19T13:38:19;7.10;99.90
55812;DHT22;41742;52.048;6.092;2022-12-19T13:43:38;7.00;99.90
55812;DHT22;41742;52.048;6.092;2022-12-19T13:46:41;7.10;99.90
55812;DHT22;41742;52.048;6.092;2022-12-19T13:49:14;7.10;99.90
55812;DHT22;41742;52.048;6.092;2022-12-19T13:51:46;7.10;99.90
55812;DHT22;41742;52.048;6.092;2022-12-19T13:54:48;7.10;99.90
55812;DHT22;41742;52.048;6.092;2022-12-19T13:57:26;7.20;99.90
55812;DHT22;41742;52.048;6.092;2022-12-19T13:59:56;7.10;99.90
55812;DHT22;41742;52.048;6.092;2022-12-19T14:02:36;7.00;99.90
55812;DHT22;41742;52.048;6.092;2022-12-19T14:05:02;7.00;99.90
55812;DHT22;41742;52.048;6.092;2022-12-19T14:07:35;7.10;99.90
55812;DHT22;41742;52.048;6.092;2022-12-19T14:10:22;7.00;99.90
55812;DHT22;41742;52.048;6.092;2022-12-19T14:12:49;6.90;99.90
55812;DHT22;41742;52.048;6.092;2022-12-19T14:15:36;6.90;99.90
55812;DHT22;41742;52.048;6.092;2022-12-19T14:18:18;7.00;99.90
55812;DHT22;41742;52.048;6.092;2022-12-19T14:20:50;6.90;99.90
55812;DHT22;41742;52.048;6.092;2022-12-19T14:23:16;7.00;99.90
55812;DHT22;41742;52.048;6.092;2022-12-19T14:25:52;7.00;99.90
55812;DHT22;41742;52.048;6.092;2022-12-19T14:28:27;7.10;99.90
55812;DHT22;41742;52.048;6.092;2022-12-19T14:31:01;7.00;99.90
55812;DHT22;41742;52.048;6.092;2022-12-19T14:33:37;7.00;99.90
55812;DHT22;41742;52.048;6.092;2022-12-19T14:36:05;6.90;99.90
55812;DHT22;41742;52.048;6.092;2022-12-19T14:38:32;6.90;99.90
55812;DHT22;41742;52.048;6.092;2022-12-19T14:41:00;6.90;99.90
55812;DHT22;41742;52.048;6.092;2022-12-19T14:43:28;6.80;99.90
55812;DHT22;41742;52.048;6.092;2022-12-19T14:48:53;6.80;99.90
55812;DHT22;41742;52.048;6.092;2022-12-19T14:51:35;6.70;99.90
55812;DHT22;41742;52.048;6.092;2022-12-19T14:56:32;6.70;99.90
55812;DHT22;41742;52.048;6.092;2022-12-19T14:58:59;6.60;99.90
55812;DHT22;41742;52.048;6.092;2022-12-19T15:01:27;6.60;99.90
55812;DHT22;41742;52.048;6.092;2022-12-19T15:06:25;6.40;99.90
55812;DHT22;41742;52.048;6.092;2022-12-19T15:08:52;6.40;99.90
55812;DHT22;41742;52.048;6.092;2022-12-19T15:11:29;6.30;99.90
55812;DHT22;41742;52.048;6.092;2022-12-19T15:14:26;6.30;99.90
55812;DHT22;41742;52.048;6.092;2022-12-19T15:17:20;6.20;99.90
55812;DHT22;41742;52.048;6.092;2022-12-19T15:19:46;6.20;99.90
55812;DHT22;41742;52.048;6.092;2022-12-19T15:22:12;6.20;99.90
55812;DHT22;41742;52.048;6.092;2022-12-19T15:24:37;6.20;99.90
55812;DHT22;41742;52.048;6.092;2022-12-19T15:27:03;6.20;99.90
55812;DHT22;41742;52.048;6.092;2022-12-19T15:29:29;6.20;99.90
55812;DHT22;41742;52.048;6.092;2022-12-19T15:31:57;6.10;99.90
55812;DHT22;41742;52.048;6.092;2022-12-19T15:34:30;6.10;99.90
55812;DHT22;41742;52.048;6.092;2022-12-19T15:36:59;6.10;99.90
55812;DHT22;41742;52.048;6.092;2022-12-19T15:39:25;6.10;99.90
55812;DHT22;41742;52.048;6.092;2022-12-19T15:41:55;6.10;99.90
55812;DHT22;41742;52.048;6.092;2022-12-19T15:44:37;6.10;99.90
55812;DHT22;41742;52.048;6.092;2022-12-19T15:47:06;6.10;99.90
55812;DHT22;41742;52.048;6.092;2022-12-19T15:49:32;6.10;99.90
55812;DHT22;41742;52.048;6.092;2022-12-19T15:51:59;6.10;99.90
55812;DHT22;41742;52.048;6.092;2022-12-19T15:54:25;6.10;99.90
55812;DHT22;41742;52.048;6.092;2022-12-19T15:56:53;6.10;99.90
55812;DHT22;41742;52.048;6.092;2022-12-19T15:59:24;6.10;99.90
55812;DHT22;41742;52.048;6.092;2022-12-19T16:01:51;6.10;99.90
55812;DHT22;41742;52.048;6.092;2022-12-19T16:04:17;6.10;99.90
55812;DHT22;41742;52.048;6.092;2022-12-19T16:06:43;6.10;99.90
55812;DHT22;41742;52.048;6.092;2022-12-19T16:09:23;6.00;99.90
55812;DHT22;41742;52.048;6.092;2022-12-19T16:11:51;6.00;99.90
55812;DHT22;41742;52.048;6.092;2022-12-19T16:14:18;6.00;99.90
55812;DHT22;41742;52.048;6.092;2022-12-19T16:16:49;6.00;99.90
55812;DHT22;41742;52.048;6.092;2022-12-19T16:19:36;6.00;99.90
55812;DHT22;41742;52.048;6.092;2022-12-19T16:22:15;5.90;99.90
55812;DHT22;41742;52.048;6.092;2022-12-19T16:24:41;6.00;99.90
55812;DHT22;41742;52.048;6.092;2022-12-19T16:27:09;5.90;99.90
55812;DHT22;41742;52.048;6.092;2022-12-19T16:29:38;5.90;99.90
55812;DHT22;41742;52.048;6.092;2022-12-19T16:32:04;5.90;99.90
55812;DHT22;41742;52.048;6.092;2022-12-19T16:34:30;5.90;99.90
55812;DHT22;41742;52.048;6.092;2022-12-19T16:36:55;5.90;99.90
55812;DHT22;41742;52.048;6.092;2022-12-19T16:39:21;5.90;99.90
55812;DHT22;41742;52.048;6.092;2022-12-19T16:41:47;5.90;99.90
55812;DHT22;41742;52.048;6.092;2022-12-19T16:44:21;5.90;99.90
55812;DHT22;41742;52.048;6.092;2022-12-19T16:46:48;6.00;99.90
55812;DHT22;41742;52.048;6.092;2022-12-19T16:49:16;6.00;99.90
55812;DHT22;41742;52.048;6.092;2022-12-19T16:51:42;6.00;99.90
55812;DHT22;41742;52.048;6.092;2022-12-19T16:54:11;6.00;99.90
55812;DHT22;41742;52.048;6.092;2022-12-19T16:56:46;6.00;99.90
55812;DHT22;41742;52.048;6.092;2022-12-19T16:59:20;6.10;99.90
55812;DHT22;41742;52.048;6.092;2022-12-19T17:01:46;6.10;99.90
55812;DHT22;41742;52.048;6.092;2022-12-19T17:04:21;6.00;99.90
55812;DHT22;41742;52.048;6.092;2022-12-19T17:06:48;6.10;99.90
55812;DHT22;41742;52.048;6.092;2022-12-19T17:09:24;6.10;99.90
55812;DHT22;41742;52.048;6.092;2022-12-19T17:11:55;6.10;99.90
55812;DHT22;41742;52.048;6.092;2022-12-19T17:14:24;6.00;99.90
55812;DHT22;41742;52.048;6.092;2022-12-19T17:16:51;6.00;99.90
55812;DHT22;41742;52.048;6.092;2022-12-19T17:19:42;6.00;99.90
55812;DHT22;41742;52.048;6.092;2022-12-19T17:22:17;5.90;99.90
55812;DHT22;41742;52.048;6.092;2022-12-19T17:24:47;5.90;99.90
55812;DHT22;41742;52.048;6.092;2022-12-19T17:27:13;5.90;99.90
55812;DHT22;41742;52.048;6.092;2022-12-19T17:29:38;5.90;99.90
55812;DHT22;41742;52.048;6.092;2022-12-19T17:32:05;5.80;99.90
55812;DHT22;41742;52.048;6.092;2022-12-19T17:34:34;5.80;99.90
55812;DHT22;41742;52.048;6.092;2022-12-19T17:37:02;5.80;99.90
55812;DHT22;41742;52.048;6.092;2022-12-19T17:39:30;5.80;99.90
55812;DHT22;41742;52.048;6.092;2022-12-19T17:42:08;5.90;99.90
55812;DHT22;41742;52.048;6.092;2022-12-19T17:44:35;5.80;99.90
55812;DHT22;41742;52.048;6.092;2022-12-19T17:47:01;5.80;99.90
55812;DHT22;41742;52.048;6.092;2022-12-19T17:49:28;5.80;99.90
55812;DHT22;41742;52.048;6.092;2022-12-19T17:51:56;5.80;99.90
55812;DHT22;41742;52.048;6.092;2022-12-19T17:54:23;5.80;99.90
55812;DHT22;41742;52.048;6.092;2022-12-19T17:56:49;5.80;99.90
55812;DHT22;41742;52.048;6.092;2022-12-19T17:59:15;5.90;99.90
55812;DHT22;41742;52.048;6.092;2022-12-19T18:01:41;5.90;99.90
55812;DHT22;41742;52.048;6.092;2022-12-19T18:04:17;5.90;99.90